createdAt,value
2019-01-17T00:01:08.701Z,6.30
2019-01-17T00:04:09.108Z,6.23
2019-01-17T00:07:00.857Z,6.30
2019-01-17T00:09:49.563Z,6.30
2019-01-17T00:12:44.485Z,6.43
2019-01-17T00:15:35.839Z,5.83
2019-01-17T00:18:40.895Z,6.03
2019-01-17T00:21:32.316Z,6.03
2019-01-17T00:24:24.168Z,6.17
2019-01-17T00:27:13.290Z,6.33
2019-01-17T00:30:01.864Z,6.50
2019-01-17T00:32:50.467Z,6.33
2019-01-17T00:35:42.326Z,6.20
2019-01-17T00:38:42.721Z,5.97
2019-01-17T00:41:34.263Z,6.57
2019-01-17T00:44:25.539Z,6.07
2019-01-17T00:47:14.663Z,5.97
2019-01-17T00:50:06.499Z,6.67
2019-01-17T00:53:11.273Z,6.33
2019-01-17T00:56:08.780Z,6.20
2019-01-17T00:59:14.132Z,6.50
2019-01-17T01:02:11.761Z,5.83
2019-01-17T01:05:03.311Z,5.93
2019-01-17T01:07:57.603Z,5.73
2019-01-17T01:10:54.861Z,6.47
2019-01-17T01:13:43.619Z,6.10
2019-01-17T01:16:35.393Z,6.67
2019-01-17T01:19:27.182Z,6.67
2019-01-17T01:22:16.227Z,6.33
2019-01-17T01:25:11.175Z,6.23
2019-01-17T01:28:02.638Z,6.03
2019-01-17T01:31:03.671Z,6.10
2019-01-17T01:33:52.816Z,6.30
2019-01-17T01:36:44.490Z,6.37
2019-01-17T01:39:33.666Z,6.03
2019-01-17T01:42:40.209Z,6.40
2019-01-17T01:45:34.932Z,6.10
2019-01-17T01:48:23.607Z,6.30
2019-01-17T01:51:18.158Z,5.63
2019-01-17T01:54:05.449Z,6.00
2019-01-17T01:56:52.423Z,6.10
2019-01-17T01:59:39.867Z,6.00
2019-01-17T02:02:26.793Z,6.13
2019-01-17T02:05:14.138Z,5.97
2019-01-17T02:08:01.090Z,6.07
2019-01-17T02:10:48.204Z,6.03
2019-01-17T02:13:36.004Z,5.40
2019-01-17T02:16:23.182Z,5.83
2019-01-17T02:19:10.506Z,5.43
2019-01-17T02:21:57.665Z,5.80
2019-01-17T02:24:44.728Z,5.97
2019-01-17T02:27:31.783Z,5.80
2019-01-17T02:30:19.314Z,5.07
2019-01-17T02:33:06.586Z,5.20
2019-01-17T02:35:53.988Z,5.40
2019-01-17T02:38:40.971Z,5.93
2019-01-17T02:41:28.160Z,5.67
2019-01-17T02:44:15.060Z,6.07
2019-01-17T02:47:02.288Z,5.53
2019-01-17T02:49:49.691Z,5.33
2019-01-17T02:52:37.181Z,5.83
2019-01-17T02:55:24.457Z,5.50
2019-01-17T02:58:11.767Z,5.60
2019-01-17T03:00:59.033Z,5.23
2019-01-17T03:03:45.886Z,5.50
2019-01-17T03:06:33.068Z,5.50
2019-01-17T03:09:20.084Z,5.90
2019-01-17T03:12:07.442Z,5.70
2019-01-17T03:14:54.476Z,6.10
2019-01-17T03:17:41.706Z,5.63
2019-01-17T03:20:28.931Z,5.87
2019-01-17T03:23:16.091Z,5.20
2019-01-17T03:26:03.038Z,5.17
2019-01-17T03:28:50.641Z,5.53
2019-01-17T03:31:37.738Z,5.70
2019-01-17T03:34:24.594Z,5.50
2019-01-17T03:37:11.792Z,5.60
2019-01-17T03:39:59.059Z,5.67
2019-01-17T03:42:45.956Z,5.63
2019-01-17T03:45:32.873Z,5.33
2019-01-17T03:48:20.183Z,5.27
2019-01-17T03:51:06.973Z,5.20
2019-01-17T03:53:54.189Z,5.20
2019-01-17T03:56:41.676Z,5.07
2019-01-17T03:59:28.865Z,4.90
2019-01-17T04:02:15.993Z,4.90
2019-01-17T04:05:03.132Z,4.83
2019-01-17T04:07:50.234Z,4.80
2019-01-17T04:10:37.460Z,5.10
2019-01-17T04:13:24.392Z,4.53
2019-01-17T04:16:11.692Z,4.43
2019-01-17T04:18:59.157Z,4.70
2019-01-17T04:21:46.204Z,4.80
2019-01-17T04:24:33.614Z,5.03
2019-01-17T04:27:20.848Z,4.70
2019-01-17T04:30:16.166Z,4.83
2019-01-17T04:33:03.366Z,5.13
2019-01-17T04:35:50.777Z,4.97
2019-01-17T04:38:37.903Z,4.37
2019-01-17T04:41:24.795Z,4.40
2019-01-17T04:44:11.946Z,4.73
2019-01-17T04:46:59.273Z,5.00
2019-01-17T04:49:46.721Z,4.83
2019-01-17T04:52:35.333Z,4.70
2019-01-17T04:55:22.332Z,4.53
2019-01-17T04:58:09.729Z,4.83
2019-01-17T05:00:56.890Z,4.40
2019-01-17T05:03:44.095Z,4.90
2019-01-17T05:06:31.495Z,4.57
2019-01-17T05:09:19.016Z,4.70
2019-01-17T05:12:06.192Z,4.80
2019-01-17T05:14:53.232Z,5.27
2019-01-17T05:17:40.161Z,4.90
2019-01-17T05:20:27.628Z,5.33
2019-01-17T05:23:14.748Z,4.80
2019-01-17T05:26:01.614Z,4.90
2019-01-17T05:28:49.120Z,4.73
2019-01-17T05:31:36.250Z,4.50
2019-01-17T05:34:23.338Z,5.13
2019-01-17T05:37:10.575Z,4.87
2019-01-17T05:39:57.668Z,4.50
2019-01-17T05:42:45.194Z,4.17
2019-01-17T05:45:32.580Z,5.00
2019-01-17T05:48:19.661Z,4.40
2019-01-17T05:51:06.747Z,4.67
2019-01-17T05:53:53.790Z,4.37
2019-01-17T05:56:40.997Z,4.03
2019-01-17T05:59:29.203Z,4.90
2019-01-17T06:02:16.318Z,4.37
2019-01-17T06:05:04.387Z,4.90
2019-01-17T06:07:51.580Z,4.60
2019-01-17T06:10:38.904Z,4.70
2019-01-17T06:13:26.303Z,4.60
2019-01-17T06:16:15.558Z,4.40
2019-01-17T06:19:02.809Z,4.50
2019-01-17T06:21:50.179Z,4.33
2019-01-17T06:24:37.365Z,4.30
2019-01-17T06:27:24.732Z,4.50
2019-01-17T06:30:14.498Z,4.30
2019-01-17T06:33:01.460Z,4.70
2019-01-17T06:35:49.226Z,4.10
2019-01-17T06:38:36.935Z,4.40
2019-01-17T06:41:24.164Z,4.27
2019-01-17T06:44:11.183Z,4.40
2019-01-17T06:46:59.420Z,4.30
2019-01-17T06:49:46.608Z,4.00
2019-01-17T06:52:33.919Z,4.03
2019-01-17T06:55:22.246Z,4.20
2019-01-17T06:58:09.868Z,3.80
2019-01-17T07:00:56.965Z,3.80
2019-01-17T07:03:44.285Z,3.87
2019-01-17T07:06:31.514Z,3.90
2019-01-17T07:09:20.375Z,3.80
2019-01-17T07:12:07.528Z,3.80
2019-01-17T07:14:54.797Z,3.90
2019-01-17T07:17:42.197Z,3.70
2019-01-17T07:20:29.735Z,4.23
2019-01-17T07:23:17.279Z,3.73
2019-01-17T07:26:04.183Z,3.40
2019-01-17T07:28:51.680Z,3.70
2019-01-17T07:31:38.671Z,3.33
2019-01-17T07:34:26.173Z,3.53
2019-01-17T07:37:13.440Z,2.70
2019-01-17T07:40:00.760Z,3.17
2019-01-17T07:42:49.251Z,2.97
2019-01-17T07:45:36.371Z,3.10
2019-01-17T07:48:23.837Z,2.80
2019-01-17T07:51:10.781Z,2.90
2019-01-17T07:53:57.949Z,2.60
2019-01-17T07:56:45.387Z,2.13
2019-01-17T07:59:32.715Z,2.03
2019-01-17T08:02:20.194Z,2.43
2019-01-17T08:05:07.271Z,2.50
2019-01-17T08:07:54.647Z,2.60
2019-01-17T08:10:41.906Z,2.40
2019-01-17T08:13:29.062Z,2.30
2019-01-17T08:16:16.339Z,2.10
2019-01-17T08:19:03.509Z,2.13
2019-01-17T08:21:50.805Z,2.50
2019-01-17T08:24:38.339Z,2.10
2019-01-17T08:27:25.251Z,2.00
2019-01-17T08:30:15.341Z,2.17
2019-01-17T08:33:02.385Z,1.70
2019-01-17T08:35:49.680Z,1.60
2019-01-17T08:38:36.983Z,1.57
2019-01-17T08:41:24.092Z,1.60
2019-01-17T08:44:11.562Z,1.50
2019-01-17T08:46:59.060Z,1.60
2019-01-17T08:49:46.027Z,1.37
2019-01-17T08:52:33.208Z,1.70
2019-01-17T08:55:20.329Z,1.50
2019-01-17T08:58:07.263Z,1.60
2019-01-17T09:00:54.240Z,1.30
2019-01-17T09:03:41.744Z,1.40
2019-01-17T09:06:28.638Z,1.33
2019-01-17T09:09:16.056Z,1.20
2019-01-17T09:12:03.249Z,1.10
2019-01-17T09:14:50.507Z,1.20
2019-01-17T09:17:37.639Z,1.27
2019-01-17T09:20:24.942Z,1.40
2019-01-17T09:23:12.549Z,1.20
2019-01-17T09:26:00.075Z,1.30
2019-01-17T09:28:47.489Z,1.10
2019-01-17T09:31:34.422Z,1.10
2019-01-17T09:34:21.678Z,1.10
2019-01-17T09:37:09.107Z,1.00
2019-01-17T09:39:56.256Z,1.10
2019-01-17T09:42:43.494Z,1.30
2019-01-17T09:45:30.619Z,1.30
2019-01-17T09:48:18.013Z,1.50
2019-01-17T09:51:05.368Z,1.60
2019-01-17T09:53:52.316Z,1.50
2019-01-17T09:56:39.499Z,1.30
2019-01-17T09:59:26.489Z,1.33
2019-01-17T10:02:13.582Z,1.63
2019-01-17T10:05:00.699Z,1.40
2019-01-17T10:07:48.070Z,1.50
2019-01-17T10:10:35.451Z,1.50
2019-01-17T10:13:22.617Z,1.80
2019-01-17T10:16:15.076Z,1.40
2019-01-17T10:19:10.123Z,1.50
2019-01-17T10:22:18.285Z,1.70
2019-01-17T10:25:23.369Z,1.10
2019-01-17T10:28:22.597Z,1.40
2019-01-17T10:31:12.590Z,1.40
2019-01-17T10:34:11.400Z,1.20
2019-01-17T10:37:28.670Z,1.20
2019-01-17T10:40:49.018Z,1.00
2019-01-17T10:43:42.100Z,0.80
2019-01-17T10:46:35.344Z,0.80
2019-01-17T10:49:43.842Z,0.80
2019-01-17T10:52:50.469Z,1.00
2019-01-17T10:55:47.025Z,0.70
2019-01-17T10:58:58.322Z,0.87
2019-01-17T11:01:57.403Z,0.70
2019-01-17T11:04:56.527Z,0.70
2019-01-17T11:07:49.465Z,0.73
2019-01-17T11:10:42.422Z,0.60
2019-01-17T11:13:35.746Z,0.70
2019-01-17T11:16:31.353Z,0.80
2019-01-17T11:19:39.996Z,0.80
2019-01-17T11:22:49.364Z,0.70
2019-01-17T11:25:48.900Z,0.70
2019-01-17T11:28:53.819Z,0.83
2019-01-17T11:31:46.844Z,0.70
2019-01-17T11:34:48.943Z,0.77
2019-01-17T11:37:54.199Z,0.90
2019-01-17T11:40:44.578Z,0.77
2019-01-17T11:43:38.158Z,0.70
2019-01-17T11:46:44.295Z,0.77
2019-01-17T11:49:49.340Z,0.90
2019-01-17T11:53:04.395Z,0.80
2019-01-17T11:55:57.850Z,0.73
2019-01-17T11:58:51.702Z,0.60
2019-01-17T12:01:41.799Z,0.70
2019-01-17T12:04:31.111Z,0.80
2019-01-17T12:07:18.952Z,0.80
2019-01-17T12:10:07.273Z,0.83
2019-01-17T12:12:54.926Z,1.00
2019-01-17T12:15:41.732Z,1.00
2019-01-17T12:18:28.906Z,1.00
2019-01-17T12:21:16.089Z,1.80
2019-01-17T12:24:03.068Z,0.67
2019-01-17T12:26:50.214Z,0.50
2019-01-17T12:29:37.367Z,0.60
2019-01-17T12:32:24.438Z,0.50
2019-01-17T12:35:11.679Z,0.70
2019-01-17T12:37:58.981Z,0.67
2019-01-17T12:40:45.835Z,0.70
2019-01-17T12:43:32.996Z,0.60
2019-01-17T12:46:20.208Z,0.73
2019-01-17T12:49:07.414Z,0.87
2019-01-17T12:51:54.690Z,0.90
2019-01-17T12:54:41.670Z,0.80
2019-01-17T12:57:28.930Z,0.80
2019-01-17T13:00:18.560Z,0.90
2019-01-17T13:03:06.107Z,0.80
2019-01-17T13:05:53.081Z,0.80
2019-01-17T13:08:40.042Z,0.90
2019-01-17T13:11:28.136Z,0.90
2019-01-17T13:14:15.334Z,1.30
2019-01-17T13:17:02.740Z,1.07
2019-01-17T13:19:49.839Z,1.23
2019-01-17T13:22:36.778Z,1.43
2019-01-17T13:25:24.117Z,0.87
2019-01-17T13:28:11.051Z,0.90
2019-01-17T13:30:58.511Z,0.73
2019-01-17T13:33:45.898Z,0.77
2019-01-17T13:36:40.099Z,0.70
2019-01-17T13:39:22.265Z,0.90
2019-01-17T13:42:09.430Z,0.90
2019-01-17T13:44:56.513Z,0.80
2019-01-17T13:47:43.653Z,0.93
2019-01-17T13:50:30.905Z,0.80
2019-01-17T13:53:18.054Z,0.90
2019-01-17T13:56:05.310Z,0.93
2019-01-17T13:58:52.207Z,0.87
2019-01-17T14:01:39.273Z,0.80
2019-01-17T14:04:27.028Z,0.90
2019-01-17T14:07:14.474Z,0.97
2019-01-17T14:10:01.360Z,1.00
2019-01-17T14:12:48.564Z,1.10
2019-01-17T14:15:36.058Z,1.00
2019-01-17T14:18:27.850Z,0.77
2019-01-17T14:21:11.867Z,0.80
2019-01-17T14:23:58.730Z,1.00
2019-01-17T14:26:45.736Z,0.80
2019-01-17T14:29:32.829Z,0.70
2019-01-17T14:32:20.039Z,1.00
2019-01-17T14:35:07.217Z,0.80
2019-01-17T14:37:54.378Z,0.70
2019-01-17T14:40:42.325Z,0.70
2019-01-17T14:43:29.636Z,1.10
2019-01-17T14:46:17.133Z,0.60
2019-01-17T14:49:04.199Z,0.80
2019-01-17T14:51:51.633Z,0.80
2019-01-17T14:54:38.901Z,0.80
2019-01-17T14:57:26.054Z,0.70
2019-01-17T15:00:27.782Z,0.80
2019-01-17T15:03:15.005Z,0.87
2019-01-17T15:06:03.540Z,1.00
2019-01-17T15:08:50.775Z,0.80
2019-01-17T15:11:37.729Z,0.90
2019-01-17T15:14:24.912Z,0.80
2019-01-17T15:17:12.053Z,0.70
2019-01-17T15:19:59.408Z,0.80
2019-01-17T15:22:47.877Z,0.77
2019-01-17T15:25:35.375Z,0.70
2019-01-17T15:28:22.923Z,0.60
2019-01-17T15:31:10.156Z,0.83
2019-01-17T15:33:57.312Z,0.70
2019-01-17T15:36:44.553Z,0.60
2019-01-17T15:39:31.977Z,1.33
2019-01-17T15:42:19.696Z,0.70
2019-01-17T15:45:08.673Z,0.73
2019-01-17T15:47:56.499Z,0.50
2019-01-17T15:50:43.924Z,0.80
2019-01-17T15:53:31.525Z,0.60
2019-01-17T15:56:18.621Z,0.80
2019-01-17T15:59:06.052Z,0.57
2019-01-17T16:01:53.600Z,0.60
2019-01-17T16:04:40.985Z,0.40
2019-01-17T16:07:28.293Z,0.67
2019-01-17T16:10:16.589Z,0.80
2019-01-17T16:13:03.831Z,0.70
2019-01-17T16:15:51.184Z,0.83
2019-01-17T16:18:38.232Z,0.70
2019-01-17T16:21:25.491Z,1.07
2019-01-17T16:24:12.552Z,0.87
2019-01-17T16:27:00.549Z,1.10
2019-01-17T16:29:47.616Z,0.60
2019-01-17T16:32:34.909Z,0.77
2019-01-17T16:35:22.133Z,0.70
2019-01-17T16:38:09.416Z,0.50
2019-01-17T16:40:56.918Z,0.80
2019-01-17T16:43:43.996Z,0.60
2019-01-17T16:46:31.262Z,0.60
2019-01-17T16:49:18.547Z,0.60
2019-01-17T16:52:05.782Z,0.60
2019-01-17T16:54:53.193Z,0.60
2019-01-17T16:57:40.288Z,0.70
2019-01-17T17:00:34.163Z,0.73
2019-01-17T17:03:21.074Z,0.70
2019-01-17T17:06:08.731Z,0.80
2019-01-17T17:08:55.685Z,0.67
2019-01-17T17:11:43.188Z,0.70
2019-01-17T17:14:30.345Z,0.77
2019-01-17T17:17:17.244Z,0.80
2019-01-17T17:20:08.119Z,0.70
2019-01-17T17:22:55.631Z,0.80
2019-01-17T17:25:43.288Z,0.70
2019-01-17T17:28:30.289Z,0.83
2019-01-17T17:31:17.388Z,0.80
2019-01-17T17:34:04.645Z,1.00
2019-01-17T17:36:51.762Z,1.03
2019-01-17T17:39:38.926Z,0.90
2019-01-17T17:42:27.587Z,0.93
2019-01-17T17:45:15.245Z,1.40
2019-01-17T17:48:02.392Z,1.20
2019-01-17T17:50:49.521Z,1.00
2019-01-17T17:53:36.829Z,0.83
2019-01-17T17:56:23.855Z,0.90
2019-01-17T17:59:11.395Z,1.00
2019-01-17T18:01:59.498Z,0.70
2019-01-17T18:04:46.712Z,0.70
2019-01-17T18:07:34.060Z,0.90
2019-01-17T18:10:21.226Z,0.90
2019-01-17T18:13:08.520Z,1.10
2019-01-17T18:15:55.511Z,1.00
2019-01-17T18:18:42.619Z,0.80
2019-01-17T18:21:29.549Z,1.00
2019-01-17T18:24:16.599Z,1.17
2019-01-17T18:27:05.078Z,1.20
2019-01-17T18:29:52.393Z,1.60
2019-01-17T18:32:39.525Z,1.30
2019-01-17T18:35:26.702Z,1.20
2019-01-17T18:38:15.466Z,1.20
2019-01-17T18:41:02.620Z,1.10
2019-01-17T18:43:49.763Z,1.00
2019-01-17T18:46:37.131Z,0.97
2019-01-17T18:49:24.299Z,1.10
2019-01-17T18:52:11.451Z,1.13
2019-01-17T18:54:58.582Z,1.23
2019-01-17T18:57:45.705Z,1.17
2019-01-17T19:00:32.948Z,1.70
2019-01-17T19:03:20.464Z,1.30
2019-01-17T19:06:07.457Z,1.40
2019-01-17T19:08:54.640Z,1.30
2019-01-17T19:11:41.950Z,1.20
2019-01-17T19:14:29.195Z,1.40
2019-01-17T19:17:16.243Z,1.50
2019-01-17T19:20:05.456Z,1.57
2019-01-17T19:22:52.730Z,1.47
2019-01-17T19:25:40.140Z,1.40
2019-01-17T19:28:26.907Z,1.30
2019-01-17T19:31:14.167Z,1.40
2019-01-17T19:34:01.693Z,1.40
2019-01-17T19:36:48.622Z,1.33
2019-01-17T19:39:35.982Z,1.40
2019-01-17T19:42:23.498Z,1.53
2019-01-17T19:45:12.500Z,1.37
2019-01-17T19:47:59.776Z,1.20
2019-01-17T19:50:46.989Z,1.43
2019-01-17T19:53:34.873Z,1.70
2019-01-17T19:56:22.340Z,1.50
2019-01-17T19:59:09.493Z,1.50
2019-01-17T20:01:56.702Z,1.70
2019-01-17T20:04:43.838Z,1.67
2019-01-17T20:07:31.302Z,1.57
2019-01-17T20:10:20.890Z,1.40
2019-01-17T20:13:08.119Z,1.70
2019-01-17T20:15:55.338Z,1.60
2019-01-17T20:18:42.740Z,1.80
2019-01-17T20:21:31.059Z,1.70
2019-01-17T20:24:18.481Z,1.60
2019-01-17T20:27:06.064Z,2.27
2019-01-17T20:29:53.431Z,2.30
2019-01-17T20:32:41.237Z,2.20
2019-01-17T20:35:29.812Z,2.23
2019-01-17T20:38:17.068Z,2.10
2019-01-17T20:41:04.316Z,1.60
2019-01-17T20:43:51.750Z,1.90
2019-01-17T20:46:39.006Z,2.00
2019-01-17T20:49:26.117Z,1.90
2019-01-17T20:52:13.450Z,2.17
2019-01-17T20:55:00.400Z,2.03
2019-01-17T20:57:48.595Z,2.07
2019-01-17T21:00:50.296Z,2.00
2019-01-17T21:03:37.411Z,1.90
2019-01-17T21:06:24.843Z,1.63
2019-01-17T21:09:12.035Z,1.80
2019-01-17T21:11:59.156Z,1.87
2019-01-17T21:14:45.998Z,1.60
2019-01-17T21:17:33.176Z,1.97
2019-01-17T21:20:20.822Z,1.90
2019-01-17T21:23:07.866Z,1.80
2019-01-17T21:25:55.278Z,2.00
2019-01-17T21:28:48.949Z,1.87
2019-01-17T21:31:31.808Z,1.90
2019-01-17T21:34:18.679Z,2.20
2019-01-17T21:37:05.896Z,2.10
2019-01-17T21:39:53.359Z,2.03
2019-01-17T21:42:40.629Z,1.80
2019-01-17T21:45:27.954Z,1.73
2019-01-17T21:48:15.175Z,1.77
2019-01-17T21:51:02.722Z,1.83
2019-01-17T21:53:49.820Z,1.90
2019-01-17T21:56:37.357Z,1.80
2019-01-17T21:59:24.339Z,1.43
2019-01-17T22:02:11.582Z,1.57
2019-01-17T22:04:58.884Z,1.80
2019-01-17T22:07:46.434Z,1.80
2019-01-17T22:10:33.580Z,1.43
2019-01-17T22:13:20.810Z,1.80
2019-01-17T22:16:07.882Z,1.93
2019-01-17T22:18:55.110Z,1.60
2019-01-17T22:21:42.372Z,1.70
2019-01-17T22:24:29.826Z,1.43
2019-01-17T22:27:16.702Z,1.93
2019-01-17T22:30:05.616Z,1.90
2019-01-17T22:32:53.047Z,2.00
2019-01-17T22:35:40.267Z,2.17
2019-01-17T22:38:27.525Z,2.00
2019-01-17T22:41:14.749Z,2.17
2019-01-17T22:44:02.177Z,2.43
2019-01-17T22:46:49.079Z,2.37
2019-01-17T22:49:36.570Z,2.30
2019-01-17T22:52:23.912Z,2.40
2019-01-17T22:55:11.522Z,2.60
2019-01-17T22:57:58.883Z,2.47
2019-01-17T23:00:49.626Z,2.40
2019-01-17T23:03:37.332Z,2.40
2019-01-17T23:06:24.803Z,2.33
2019-01-17T23:09:12.498Z,2.60
2019-01-17T23:11:59.306Z,2.60
2019-01-17T23:14:46.657Z,2.20
2019-01-17T23:17:33.830Z,2.20
2019-01-17T23:20:20.954Z,2.60
2019-01-17T23:23:08.135Z,2.60
2019-01-17T23:25:55.274Z,2.30
2019-01-17T23:28:42.353Z,2.63
2019-01-17T23:31:29.511Z,2.80
2019-01-17T23:34:16.432Z,2.67
2019-01-17T23:37:03.577Z,2.60
2019-01-17T23:39:50.602Z,2.70
2019-01-17T23:42:37.890Z,2.97
2019-01-17T23:45:25.131Z,2.80
2019-01-17T23:48:12.255Z,2.63
2019-01-17T23:50:59.599Z,2.30
2019-01-17T23:53:46.796Z,2.70
2019-01-17T23:56:33.712Z,2.33
2019-01-17T23:59:22.720Z,2.50
